Nearby METAR Reports

 

KICL - Clarinda, Iowa, USA
Distance from station: N 49mi, 79km
Updated: Tue, 16-Jan-2018 6:35am CST
Overcast
Overcast
 Wind from NNW
Wind: NNW 8 mph , 13 km/h, Gust: 15 mph , 24 km/h
Temperature: -2°F , -19°C
Wind Chill: -17°F , -27°C
Dew Point: -8°F , -22°C
Humidity: 77%
Barometer: 30.74 inHg , 1041 hPa
Clouds: Overcast
Visibility: 10 miles , 16 km
Cloud details: Mostly cloudy 2400 ft
Overcast 3500 ft
2018/01/16 12:35 KICL 161235Z AUTO 33007G13KT 10SM BKN024 OVC035 M19/M22 A3074 RMK AO2
KDSM - Des Moines, Iowa, USA
Distance from station: NNE 122mi, 196km
Updated: Tue, 16-Jan-2018 6:32am CST
Light snow, Overcast
Light snow, Overcast
 Wind from NW
Wind: NW 15 mph , 24 km/h
Temperature: -4°F , -20°C
Wind Chill: -25°F , -32°C
Dew Point: -9°F , -23°C
Humidity: 77%
Barometer: 30.66 inHg , 1038.3 hPa
Summary: Light Snow
Clouds: Overcast
Visibility: 3 miles , 5 km
Cloud details: Partly cloudy 2000 ft
Overcast 5500 ft
2018/01/16 12:32 KDSM 161232Z 32013KT 3SM -SN SCT020 OVC055 M20/M23 A3066 RMK AO2 SFC VIS 4 DRSN P0000 T12001233
KFNB - Falls City, Nebraska, USA
Distance from station: W 50mi, 80km
Updated: Tue, 16-Jan-2018 6:53am CST
Overcast
Overcast
 Wind from NW
Wind: NW 12 mph , 19 km/h
Temperature: -2°F , -19°C
Wind Chill: -20°F , -29°C
Dew Point: -8°F , -22°C
Humidity: 77%
Barometer: 30.74 inHg , 1041 hPa
Clouds: Overcast
Visibility: 10 miles , 16 km
Cloud details: Overcast 1900 ft
2018/01/16 12:53 KFNB 161253Z AUTO 32010KT 10SM OVC019 M19/M22 A3074 RMK AO2 SLP435 T11891222
 
KMCI - Kansas City, Missouri, USA
Distance from station: S 65mi, 104km
Updated: Tue, 16-Jan-2018 6:53am CST
Mostly cloudy
Mostly cloudy
 Wind from NW
Wind: NW 9 mph , 15 km/h
Temperature: -4°F , -20°C
Wind Chill: -20°F , -29°C
Dew Point: -9°F , -23°C
Humidity: 77%
Barometer: 30.71 inHg , 1040 hPa
Clouds: Mostly cloudy
Visibility: 10 miles , 16 km
Cloud details: Mostly cloudy 3300 ft
2018/01/16 12:53 KMCI 161253Z 32008KT 10SM BKN033 M20/M23 A3071 RMK AO2 SLP425 T12001233
KOMA - Omaha, Nebraska, USA
Distance from station: NNW 105mi, 169km
Updated: Tue, 16-Jan-2018 6:52am CST
Mostly cloudy
Mostly cloudy
 Wind from NNW
Wind: NNW 15 mph , 24 km/h
Temperature: -2°F , -19°C
Wind Chill: -22°F , -30°C
Dew Point: -8°F , -22°C
Humidity: 77%
Barometer: 30.75 inHg , 1041.3 hPa
Clouds: Mostly cloudy
Visibility: 10 miles , 16 km
Cloud details: Mostly cloudy 1900 ft
2018/01/16 12:52 KOMA 161252Z 33013KT 10SM BKN019 M19/M22 A3075 RMK AO2 PK WND 33026/1210 SNE24 SLP441 P0000 T11891222
KRDK - Red Oak, Iowa, USA
Distance from station: N 70mi, 112km
Updated: Tue, 16-Jan-2018 6:35am CST
Light snow, Overcast
Light snow, Overcast
 Wind from NNW
Wind: NNW 14 mph , 22 km/h, Gust: 24 mph , 39 km/h
Temperature: -2°F , -19°C
Wind Chill: -21°F , -29°C
Dew Point: -8°F , -22°C
Humidity: 77%
Barometer: 30.73 inHg , 1040.6 hPa
Summary: Light Snow
Clouds: Overcast
Visibility: 10 miles , 16 km
Cloud details: Few Clouds 2900 ft
Overcast 3600 ft
2018/01/16 12:35 KRDK 161235Z AUTO 34012G21KT 10SM -SN FEW029 OVC036 M19/M22 A3073 RMK AO2
 
KSTJ - Saint Joseph, Missouri, USA
Distance from station: SW 23mi, 37km
Updated: Tue, 16-Jan-2018 6:53am CST

 
Barometer: 30.75 inHg , 1041.3 hPa
2018/01/16 12:53 KSTJ 161253Z AUTO A3075 RMK AO2 SLPNO PWINO FZRANO RVRNO
KTOP - Topeka, Kansas, USA
Distance from station: SW 85mi, 137km
Updated: Tue, 16-Jan-2018 6:53am CST
Clear
Clear
 Wind from WNW
Wind: WNW 7 mph , 11 km/h
Temperature: -2°F , -19°C
Wind Chill: -15°F , -26°C
Dew Point: -8°F , -22°C
Humidity: 77%
Barometer: 30.77 inHg , 1042 hPa
Clouds: Clear
Visibility: 10 miles , 16 km
2018/01/16 12:53 KTOP 161253Z 29006KT 10SM CLR M19/M22 A3077 RMK AO2 SLP441 T11891222 $
KICT - Wichita, Kansas, USA
Distance from station: SW 215mi, 346km
Updated: Tue, 16-Jan-2018 6:53am CST
Clear
Clear
 Wind from NNW
Wind: NNW 14 mph , 22 km/h
Temperature: 3°F , -16°C
Wind Chill: -15°F , -26°C
Dew Point: -6°F , -21°C
Humidity: 66%
Barometer: 30.77 inHg , 1042 hPa
Clouds: Clear
Visibility: 10 miles , 16 km
2018/01/16 12:53 KICT 161253Z 34012KT 10SM CLR M16/M21 A3077 RMK AO2 SLP447 T11561206 $